sensor_id;sensor_type;location;lat;lon;timestamp;pressure;altitude;pressure_sealevel;temperature;humidity
19236;BME280;9752;54.270;12.470;2023-05-24T00:00:09;101970.84;;;10.47;100.00
19236;BME280;9752;54.270;12.470;2023-05-24T00:05:12;101973.94;;;10.43;100.00
19236;BME280;9752;54.270;12.470;2023-05-24T00:10:14;101981.22;;;10.47;100.00
19236;BME280;9752;54.270;12.470;2023-05-24T00:15:17;102001.03;;;10.47;100.00
19236;BME280;9752;54.270;12.470;2023-05-24T00:20:18;102002.88;;;10.48;100.00
19236;BME280;9752;54.270;12.470;2023-05-24T00:25:20;102001.16;;;10.48;100.00
19236;BME280;9752;54.270;12.470;2023-05-24T00:30:23;102008.41;;;10.52;100.00
19236;BME280;9752;54.270;12.470;2023-05-24T00:35:25;102012.34;;;10.47;100.00
19236;BME280;9752;54.270;12.470;2023-05-24T00:40:27;102018.28;;;10.46;100.00
19236;BME280;9752;54.270;12.470;2023-05-24T00:45:30;102021.63;;;10.55;100.00
19236;BME280;9752;54.270;12.470;2023-05-24T00:50:32;102029.06;;;10.51;100.00
19236;BME280;9752;54.270;12.470;2023-05-24T00:55:34;102040.56;;;10.54;100.00
19236;BME280;9752;54.270;12.470;2023-05-24T01:00:38;102042.81;;;10.50;100.00
19236;BME280;9752;54.270;12.470;2023-05-24T01:05:39;102043.69;;;10.50;100.00
19236;BME280;9752;54.270;12.470;2023-05-24T01:10:49;102055.63;;;10.48;100.00
19236;BME280;9752;54.270;12.470;2023-05-24T01:15:59;102061.00;;;10.40;100.00
19236;BME280;9752;54.270;12.470;2023-05-24T01:21:13;102067.09;;;10.40;100.00
19236;BME280;9752;54.270;12.470;2023-05-24T01:26:30;102081.34;;;10.45;100.00
19236;BME280;9752;54.270;12.470;2023-05-24T01:31:34;102093.78;;;10.49;100.00
19236;BME280;9752;54.270;12.470;2023-05-24T01:36:36;102094.94;;;10.53;100.00
19236;BME280;9752;54.270;12.470;2023-05-24T01:41:43;102099.47;;;10.55;100.00
19236;BME280;9752;54.270;12.470;2023-05-24T01:46:53;102114.53;;;10.49;100.00
19236;BME280;9752;54.270;12.470;2023-05-24T01:51:59;102113.75;;;10.50;100.00
19236;BME280;9752;54.270;12.470;2023-05-24T01:57:05;102124.16;;;10.40;100.00
19236;BME280;9752;54.270;12.470;2023-05-24T02:02:09;102130.28;;;10.30;100.00
19236;BME280;9752;54.270;12.470;2023-05-24T02:07:11;102141.28;;;10.18;100.00
19236;BME280;9752;54.270;12.470;2023-05-24T02:12:12;102144.53;;;10.05;100.00
19236;BME280;9752;54.270;12.470;2023-05-24T02:17:15;102157.88;;;10.09;100.00
19236;BME280;9752;54.270;12.470;2023-05-24T02:22:17;102164.75;;;9.99;100.00
19236;BME280;9752;54.270;12.470;2023-05-24T02:27:21;102179.91;;;9.94;100.00
19236;BME280;9752;54.270;12.470;2023-05-24T02:32:24;102199.84;;;10.05;100.00
19236;BME280;9752;54.270;12.470;2023-05-24T02:37:26;102238.53;;;10.23;100.00
19236;BME280;9752;54.270;12.470;2023-05-24T02:42:27;102251.84;;;10.27;100.00
19236;BME280;9752;54.270;12.470;2023-05-24T02:47:31;102255.00;;;10.33;100.00
19236;BME280;9752;54.270;12.470;2023-05-24T02:52:32;102255.94;;;10.34;100.00
19236;BME280;9752;54.270;12.470;2023-05-24T02:57:34;102251.38;;;10.42;100.00
19236;BME280;9752;54.270;12.470;2023-05-24T03:02:38;102249.81;;;10.44;100.00
19236;BME280;9752;54.270;12.470;2023-05-24T03:07:40;102244.38;;;10.30;100.00
19236;BME280;9752;54.270;12.470;2023-05-24T03:12:42;102237.50;;;10.31;100.00
19236;BME280;9752;54.270;12.470;2023-05-24T03:17:45;102231.53;;;10.32;100.00
19236;BME280;9752;54.270;12.470;2023-05-24T03:22:47;102235.63;;;10.30;100.00
19236;BME280;9752;54.270;12.470;2023-05-24T03:27:49;102237.50;;;10.31;100.00
19236;BME280;9752;54.270;12.470;2023-05-24T03:32:54;102237.78;;;10.34;100.00
19236;BME280;9752;54.270;12.470;2023-05-24T03:37:55;102238.91;;;10.38;100.00
19236;BME280;9752;54.270;12.470;2023-05-24T03:42:58;102244.47;;;10.52;100.00
19236;BME280;9752;54.270;12.470;2023-05-24T03:48:31;102239.31;;;10.63;100.00
19236;BME280;9752;54.270;12.470;2023-05-24T03:53:32;102239.53;;;10.76;100.00
19236;BME280;9752;54.270;12.470;2023-05-24T03:58:34;102241.28;;;10.98;100.00
19236;BME280;9752;54.270;12.470;2023-05-24T04:03:38;102235.69;;;11.03;100.00
19236;BME280;9752;54.270;12.470;2023-05-24T04:08:40;102225.91;;;11.11;100.00
19236;BME280;9752;54.270;12.470;2023-05-24T04:13:43;102221.75;;;11.13;100.00
19236;BME280;9752;54.270;12.470;2023-05-24T04:18:46;102219.19;;;11.35;100.00
19236;BME280;9752;54.270;12.470;2023-05-24T04:23:48;102213.22;;;11.58;100.00
19236;BME280;9752;54.270;12.470;2023-05-24T04:28:50;102201.72;;;11.66;100.00
19236;BME280;9752;54.270;12.470;2023-05-24T04:33:53;102190.16;;;11.95;100.00
19236;BME280;9752;54.270;12.470;2023-05-24T04:38:54;102160.06;;;11.99;100.00
19236;BME280;9752;54.270;12.470;2023-05-24T04:44:02;102136.72;;;12.34;100.00
19236;BME280;9752;54.270;12.470;2023-05-24T04:49:05;102116.81;;;12.46;100.00
19236;BME280;9752;54.270;12.470;2023-05-24T04:54:08;102102.88;;;12.46;100.00
19236;BME280;9752;54.270;12.470;2023-05-24T04:59:09;102091.56;;;12.57;100.00
19236;BME280;9752;54.270;12.470;2023-05-24T05:04:12;102075.53;;;12.27;100.00
19236;BME280;9752;54.270;12.470;2023-05-24T05:09:14;102079.81;;;12.03;100.00
19236;BME280;9752;54.270;12.470;2023-05-24T05:14:16;102086.59;;;12.01;100.00
19236;BME280;9752;54.270;12.470;2023-05-24T05:19:19;102089.41;;;12.04;100.00
19236;BME280;9752;54.270;12.470;2023-05-24T05:24:21;102091.22;;;12.29;100.00
19236;BME280;9752;54.270;12.470;2023-05-24T05:29:22;102098.13;;;12.40;100.00
19236;BME280;9752;54.270;12.470;2023-05-24T05:34:25;102103.13;;;12.49;100.00
19236;BME280;9752;54.270;12.470;2023-05-24T05:39:27;102102.88;;;12.46;100.00
19236;BME280;9752;54.270;12.470;2023-05-24T05:44:31;102111.69;;;12.72;100.00
19236;BME280;9752;54.270;12.470;2023-05-24T05:49:34;102108.41;;;12.74;100.00
19236;BME280;9752;54.270;12.470;2023-05-24T05:54:36;102106.09;;;13.02;100.00
19236;BME280;9752;54.270;12.470;2023-05-24T05:59:37;102092.28;;;13.03;100.00
19236;BME280;9752;54.270;12.470;2023-05-24T06:04:40;102078.50;;;12.93;100.00
19236;BME280;9752;54.270;12.470;2023-05-24T06:09:42;102082.53;;;12.52;100.00
19236;BME280;9752;54.270;12.470;2023-05-24T06:14:44;102076.22;;;12.85;100.00
19236;BME280;9752;54.270;12.470;2023-05-24T06:19:49;102073.03;;;13.01;100.00
19236;BME280;9752;54.270;12.470;2023-05-24T06:24:52;102074.41;;;12.96;100.00
19236;BME280;9752;54.270;12.470;2023-05-24T06:29:54;102067.72;;;13.00;100.00
19236;BME280;9752;54.270;12.470;2023-05-24T06:34:57;102070.91;;;12.96;100.00
19236;BME280;9752;54.270;12.470;2023-05-24T06:39:59;102078.19;;;12.76;100.00
19236;BME280;9752;54.270;12.470;2023-05-24T06:45:00;102080.88;;;13.26;100.00
19236;BME280;9752;54.270;12.470;2023-05-24T06:50:05;102049.53;;;13.63;100.00
19236;BME280;9752;54.270;12.470;2023-05-24T06:55:08;102049.47;;;13.89;100.00
19236;BME280;9752;54.270;12.470;2023-05-24T07:00:11;102046.88;;;13.00;100.00
19236;BME280;9752;54.270;12.470;2023-05-24T07:05:14;102060.22;;;13.29;100.00
19236;BME280;9752;54.270;12.470;2023-05-24T07:10:16;102036.97;;;13.96;100.00
19236;BME280;9752;54.270;12.470;2023-05-24T07:15:18;102051.69;;;13.82;100.00
19236;BME280;9752;54.270;12.470;2023-05-24T07:20:21;102052.19;;;13.38;100.00
19236;BME280;9752;54.270;12.470;2023-05-24T07:25:23;102062.00;;;13.81;100.00
19236;BME280;9752;54.270;12.470;2023-05-24T07:30:24;102055.41;;;13.86;100.00
19236;BME280;9752;54.270;12.470;2023-05-24T07:35:27;102064.13;;;13.86;100.00
19236;BME280;9752;54.270;12.470;2023-05-24T07:40:30;102073.00;;;14.02;100.00
19236;BME280;9752;54.270;12.470;2023-05-24T07:45:32;102069.34;;;14.00;100.00
19236;BME280;9752;54.270;12.470;2023-05-24T07:50:35;102063.47;;;14.29;100.00
19236;BME280;9752;54.270;12.470;2023-05-24T07:55:37;102068.69;;;14.42;100.00
19236;BME280;9752;54.270;12.470;2023-05-24T08:00:39;102077.81;;;14.76;100.00
19236;BME280;9752;54.270;12.470;2023-05-24T08:05:42;102088.91;;;13.80;100.00
19236;BME280;9752;54.270;12.470;2023-05-24T08:10:44;102098.97;;;14.00;100.00
19236;BME280;9752;54.270;12.470;2023-05-24T08:15:46;102109.56;;;14.29;100.00
19236;BME280;9752;54.270;12.470;2023-05-24T08:20:49;102111.69;;;13.96;100.00
19236;BME280;9752;54.270;12.470;2023-05-24T08:25:51;102127.69;;;13.50;100.00
19236;BME280;9752;54.270;12.470;2023-05-24T08:30:53;102117.88;;;14.23;100.00
19236;BME280;9752;54.270;12.470;2023-05-24T08:35:56;102113.44;;;13.70;100.00
19236;BME280;9752;54.270;12.470;2023-05-24T08:40:58;102125.72;;;14.36;100.00
19236;BME280;9752;54.270;12.470;2023-05-24T08:46:01;102122.00;;;14.19;100.00
19236;BME280;9752;54.270;12.470;2023-05-24T08:51:05;102122.47;;;14.00;100.00
19236;BME280;9752;54.270;12.470;2023-05-24T08:56:07;102131.56;;;13.94;100.00
19236;BME280;9752;54.270;12.470;2023-05-24T09:01:10;102132.34;;;14.31;100.00
19236;BME280;9752;54.270;12.470;2023-05-24T09:06:16;102137.34;;;14.55;100.00
19236;BME280;9752;54.270;12.470;2023-05-24T09:11:18;102132.44;;;14.46;100.00
19236;BME280;9752;54.270;12.470;2023-05-24T09:16:22;102122.16;;;14.61;100.00
19236;BME280;9752;54.270;12.470;2023-05-24T09:21:25;102132.38;;;14.71;100.00
19236;BME280;9752;54.270;12.470;2023-05-24T09:26:28;102133.47;;;14.75;100.00
19236;BME280;9752;54.270;12.470;2023-05-24T09:31:31;102140.22;;;15.26;100.00
19236;BME280;9752;54.270;12.470;2023-05-24T09:36:35;102129.22;;;15.03;100.00
19236;BME280;9752;54.270;12.470;2023-05-24T09:41:42;102129.84;;;14.86;100.00
19236;BME280;9752;54.270;12.470;2023-05-24T09:46:44;102140.75;;;15.07;100.00
19236;BME280;9752;54.270;12.470;2023-05-24T09:51:48;102140.88;;;15.65;100.00
19236;BME280;9752;54.270;12.470;2023-05-24T09:56:50;102143.59;;;14.97;100.00
19236;BME280;9752;54.270;12.470;2023-05-24T10:01:55;102140.16;;;15.39;100.00
19236;BME280;9752;54.270;12.470;2023-05-24T10:07:11;102141.69;;;14.94;100.00
19236;BME280;9752;54.270;12.470;2023-05-24T10:12:13;102143.03;;;15.29;100.00
19236;BME280;9752;54.270;12.470;2023-05-24T10:17:14;102145.66;;;15.44;100.00
19236;BME280;9752;54.270;12.470;2023-05-24T10:22:20;102144.19;;;15.34;100.00
19236;BME280;9752;54.270;12.470;2023-05-24T10:27:24;102139.75;;;15.75;100.00
19236;BME280;9752;54.270;12.470;2023-05-24T10:32:30;102140.75;;;15.77;100.00
19236;BME280;9752;54.270;12.470;2023-05-24T10:37:34;102139.78;;;16.05;100.00
19236;BME280;9752;54.270;12.470;2023-05-24T10:42:37;102154.53;;;15.74;100.00
19236;BME280;9752;54.270;12.470;2023-05-24T10:47:39;102165.81;;;15.73;100.00
19236;BME280;9752;54.270;12.470;2023-05-24T10:52:42;102169.56;;;16.07;100.00
19236;BME280;9752;54.270;12.470;2023-05-24T10:57:44;102165.16;;;16.06;100.00
19236;BME280;9752;54.270;12.470;2023-05-24T11:02:47;102166.25;;;16.24;100.00
19236;BME280;9752;54.270;12.470;2023-05-24T11:07:57;102167.25;;;15.27;100.00
19236;BME280;9752;54.270;12.470;2023-05-24T11:13:01;102179.03;;;15.61;100.00
19236;BME280;9752;54.270;12.470;2023-05-24T11:18:13;102169.97;;;15.56;100.00
19236;BME280;9752;54.270;12.470;2023-05-24T11:23:17;102164.78;;;16.59;100.00
19236;BME280;9752;54.270;12.470;2023-05-24T11:28:19;102157.97;;;17.40;100.00
19236;BME280;9752;54.270;12.470;2023-05-24T11:33:23;102159.66;;;18.05;100.00
19236;BME280;9752;54.270;12.470;2023-05-24T11:38:26;102154.09;;;17.99;100.00
19236;BME280;9752;54.270;12.470;2023-05-24T11:43:29;102160.75;;;17.60;100.00
19236;BME280;9752;54.270;12.470;2023-05-24T11:48:31;102166.50;;;17.69;100.00
19236;BME280;9752;54.270;12.470;2023-05-24T11:53:34;102186.19;;;17.13;100.00
19236;BME280;9752;54.270;12.470;2023-05-24T11:58:43;102174.56;;;17.24;100.00
19236;BME280;9752;54.270;12.470;2023-05-24T12:03:48;102191.78;;;17.19;100.00
19236;BME280;9752;54.270;12.470;2023-05-24T12:08:51;102191.59;;;16.10;100.00
19236;BME280;9752;54.270;12.470;2023-05-24T12:13:52;102197.50;;;15.65;100.00
19236;BME280;9752;54.270;12.470;2023-05-24T12:18:55;102208.16;;;15.81;100.00
19236;BME280;9752;54.270;12.470;2023-05-24T12:24:03;102208.16;;;15.81;100.00
19236;BME280;9752;54.270;12.470;2023-05-24T12:29:05;102194.47;;;16.45;100.00
19236;BME280;9752;54.270;12.470;2023-05-24T12:34:10;102203.91;;;16.41;100.00
19236;BME280;9752;54.270;12.470;2023-05-24T12:39:21;102198.53;;;16.84;100.00
19236;BME280;9752;54.270;12.470;2023-05-24T12:44:24;102195.22;;;17.18;100.00
19236;BME280;9752;54.270;12.470;2023-05-24T12:49:26;102195.84;;;16.68;100.00
19236;BME280;9752;54.270;12.470;2023-05-24T12:54:29;102194.84;;;16.21;100.00
19236;BME280;9752;54.270;12.470;2023-05-24T12:59:31;102202.81;;;16.52;100.00
19236;BME280;9752;54.270;12.470;2023-05-24T13:04:33;102209.84;;;16.09;100.00
19236;BME280;9752;54.270;12.470;2023-05-24T13:09:37;102211.66;;;16.25;100.00
19236;BME280;9752;54.270;12.470;2023-05-24T13:14:38;102203.97;;;16.43;100.00
19236;BME280;9752;54.270;12.470;2023-05-24T13:19:40;102201.84;;;17.11;100.00
19236;BME280;9752;54.270;12.470;2023-05-24T13:24:43;102204.09;;;17.05;100.00
19236;BME280;9752;54.270;12.470;2023-05-24T13:29:45;102209.13;;;16.86;100.00
19236;BME280;9752;54.270;12.470;2023-05-24T13:34:47;102214.00;;;16.35;100.00
19236;BME280;9752;54.270;12.470;2023-05-24T13:39:50;102210.75;;;16.69;100.00
19236;BME280;9752;54.270;12.470;2023-05-24T13:44:52;102211.28;;;17.24;100.00
19236;BME280;9752;54.270;12.470;2023-05-24T13:49:55;102220.41;;;17.31;100.00
19236;BME280;9752;54.270;12.470;2023-05-24T13:54:58;102215.44;;;16.74;100.00
19236;BME280;9752;54.270;12.470;2023-05-24T14:00:00;102206.47;;;17.32;100.00
19236;BME280;9752;54.270;12.470;2023-05-24T14:05:06;102203.06;;;16.72;100.00
19236;BME280;9752;54.270;12.470;2023-05-24T14:10:10;102205.84;;;17.52;100.00
19236;BME280;9752;54.270;12.470;2023-05-24T14:15:12;102196.28;;;17.86;100.00
19236;BME280;9752;54.270;12.470;2023-05-24T14:20:13;102199.16;;;19.31;100.00
19236;BME280;9752;54.270;12.470;2023-05-24T14:25:17;102209.56;;;20.25;100.00
19236;BME280;9752;54.270;12.470;2023-05-24T14:30:19;102203.94;;;21.23;100.00
19236;BME280;9752;54.270;12.470;2023-05-24T14:35:20;102220.31;;;20.11;100.00
19236;BME280;9752;54.270;12.470;2023-05-24T14:40:23;102216.75;;;20.29;100.00
19236;BME280;9752;54.270;12.470;2023-05-24T14:45:25;102232.00;;;19.96;100.00
19236;BME280;9752;54.270;12.470;2023-05-24T14:50:27;102218.06;;;19.99;100.00
19236;BME280;9752;54.270;12.470;2023-05-24T14:55:30;102215.81;;;21.81;100.00
19236;BME280;9752;54.270;12.470;2023-05-24T15:00:31;102237.81;;;19.51;100.00
19236;BME280;9752;54.270;12.470;2023-05-24T15:05:33;102238.34;;;19.44;100.00
19236;BME280;9752;54.270;12.470;2023-05-24T15:10:36;102233.75;;;17.67;100.00
19236;BME280;9752;54.270;12.470;2023-05-24T15:15:39;102239.13;;;16.91;100.00
19236;BME280;9752;54.270;12.470;2023-05-24T15:20:41;102238.31;;;16.62;100.00
19236;BME280;9752;54.270;12.470;2023-05-24T15:25:44;102235.66;;;16.32;100.00
19236;BME280;9752;54.270;12.470;2023-05-24T15:30:46;102233.25;;;15.92;100.00
19236;BME280;9752;54.270;12.470;2023-05-24T15:35:48;102231.78;;;16.11;100.00
19236;BME280;9752;54.270;12.470;2023-05-24T15:40:51;102235.41;;;16.72;100.00
19236;BME280;9752;54.270;12.470;2023-05-24T15:45:52;102226.78;;;17.20;100.00
19236;BME280;9752;54.270;12.470;2023-05-24T15:50:54;102230.16;;;17.33;100.00
19236;BME280;9752;54.270;12.470;2023-05-24T15:55:57;102216.16;;;17.66;100.00
19236;BME280;9752;54.270;12.470;2023-05-24T16:00:59;102220.47;;;19.00;100.00
19236;BME280;9752;54.270;12.470;2023-05-24T16:06:01;102222.19;;;18.29;100.00
19236;BME280;9752;54.270;12.470;2023-05-24T16:11:04;102218.56;;;19.90;100.00
19236;BME280;9752;54.270;12.470;2023-05-24T16:16:07;102214.56;;;19.61;100.00
19236;BME280;9752;54.270;12.470;2023-05-24T16:21:09;102207.84;;;23.36;100.00
19236;BME280;9752;54.270;12.470;2023-05-24T16:26:12;102201.25;;;22.42;100.00
19236;BME280;9752;54.270;12.470;2023-05-24T16:31:14;102215.78;;;20.47;100.00
19236;BME280;9752;54.270;12.470;2023-05-24T16:36:16;102206.16;;;22.06;100.00
19236;BME280;9752;54.270;12.470;2023-05-24T16:41:19;102198.63;;;23.52;100.00
19236;BME280;9752;54.270;12.470;2023-05-24T16:46:21;102199.75;;;23.61;100.00
19236;BME280;9752;54.270;12.470;2023-05-24T16:51:23;102208.72;;;23.66;100.00
19236;BME280;9752;54.270;12.470;2023-05-24T16:56:26;102221.97;;;21.80;100.00
19236;BME280;9752;54.270;12.470;2023-05-24T17:01:27;102213.03;;;23.33;100.00
19236;BME280;9752;54.270;12.470;2023-05-24T17:06:29;102216.50;;;22.49;100.00
19236;BME280;9752;54.270;12.470;2023-05-24T17:11:32;102208.22;;;23.49;100.00
19236;BME280;9752;54.270;12.470;2023-05-24T17:16:34;102222.53;;;21.49;100.00
19236;BME280;9752;54.270;12.470;2023-05-24T17:21:36;102215.41;;;21.70;100.00
19236;BME280;9752;54.270;12.470;2023-05-24T17:26:39;102209.34;;;23.57;100.00
19236;BME280;9752;54.270;12.470;2023-05-24T17:31:41;102223.22;;;22.15;100.00
19236;BME280;9752;54.270;12.470;2023-05-24T17:36:43;102231.84;;;20.95;100.00
19236;BME280;9752;54.270;12.470;2023-05-24T17:41:46;102232.59;;;21.36;100.00
19236;BME280;9752;54.270;12.470;2023-05-24T17:46:48;102232.59;;;22.30;100.00
19236;BME280;9752;54.270;12.470;2023-05-24T17:51:49;102240.31;;;21.32;100.00
19236;BME280;9752;54.270;12.470;2023-05-24T17:56:52;102234.75;;;21.24;100.00
19236;BME280;9752;54.270;12.470;2023-05-24T18:01:54;102230.47;;;22.72;100.00
19236;BME280;9752;54.270;12.470;2023-05-24T18:06:56;102248.16;;;20.85;100.00
19236;BME280;9752;54.270;12.470;2023-05-24T18:11:59;102251.69;;;20.45;100.00
19236;BME280;9752;54.270;12.470;2023-05-24T18:17:01;102251.75;;;19.31;100.00
19236;BME280;9752;54.270;12.470;2023-05-24T18:22:03;102250.25;;;19.36;100.00
19236;BME280;9752;54.270;12.470;2023-05-24T18:27:06;102268.22;;;18.57;100.00
19236;BME280;9752;54.270;12.470;2023-05-24T18:32:08;102260.91;;;18.33;100.00
19236;BME280;9752;54.270;12.470;2023-05-24T18:37:10;102266.75;;;16.56;100.00
19236;BME280;9752;54.270;12.470;2023-05-24T18:42:13;102270.31;;;14.52;100.00
19236;BME280;9752;54.270;12.470;2023-05-24T18:47:15;102266.66;;;13.86;100.00
19236;BME280;9752;54.270;12.470;2023-05-24T18:52:16;102265.44;;;13.44;100.00
19236;BME280;9752;54.270;12.470;2023-05-24T18:57:20;102263.75;;;13.09;100.00
19236;BME280;9752;54.270;12.470;2023-05-24T19:02:22;102277.19;;;12.80;100.00
19236;BME280;9752;54.270;12.470;2023-05-24T19:07:23;102281.22;;;12.53;100.00
19236;BME280;9752;54.270;12.470;2023-05-24T19:12:26;102279.81;;;12.34;100.00
19236;BME280;9752;54.270;12.470;2023-05-24T19:17:28;102288.78;;;12.16;100.00
19236;BME280;9752;54.270;12.470;2023-05-24T19:22:30;102295.66;;;12.03;100.00
19236;BME280;9752;54.270;12.470;2023-05-24T19:27:33;102295.59;;;11.81;100.00
19236;BME280;9752;54.270;12.470;2023-05-24T19:32:34;102302.91;;;11.53;100.00
19236;BME280;9752;54.270;12.470;2023-05-24T19:37:37;102311.31;;;11.28;100.00
19236;BME280;9752;54.270;12.470;2023-05-24T19:42:40;102314.66;;;10.95;100.00
19236;BME280;9752;54.270;12.470;2023-05-24T19:47:42;102317.38;;;10.66;100.00
19236;BME280;9752;54.270;12.470;2023-05-24T19:52:44;102317.91;;;10.51;100.00
19236;BME280;9752;54.270;12.470;2023-05-24T19:57:47;102330.75;;;10.40;100.00
19236;BME280;9752;54.270;12.470;2023-05-24T20:02:49;102371.50;;;10.51;100.00
19236;BME280;9752;54.270;12.470;2023-05-24T20:07:50;102391.69;;;10.45;100.00
19236;BME280;9752;54.270;12.470;2023-05-24T20:12:53;102392.56;;;10.25;100.00
19236;BME280;9752;54.270;12.470;2023-05-24T20:17:55;102407.69;;;10.10;100.00
19236;BME280;9752;54.270;12.470;2023-05-24T20:22:57;102427.97;;;9.95;100.00
19236;BME280;9752;54.270;12.470;2023-05-24T20:28:00;102434.31;;;9.69;100.00
19236;BME280;9752;54.270;12.470;2023-05-24T20:33:02;102449.41;;;9.54;100.00
19236;BME280;9752;54.270;12.470;2023-05-24T20:38:03;102472.81;;;9.37;100.00
19236;BME280;9752;54.270;12.470;2023-05-24T20:43:06;102534.00;;;9.26;100.00
19236;BME280;9752;54.270;12.470;2023-05-24T20:48:08;102557.47;;;9.19;100.00
19236;BME280;9752;54.270;12.470;2023-05-24T20:53:10;102584.66;;;9.05;100.00
19236;BME280;9752;54.270;12.470;2023-05-24T20:58:13;102611.47;;;8.97;100.00
19236;BME280;9752;54.270;12.470;2023-05-24T21:03:16;102644.22;;;8.88;100.00
19236;BME280;9752;54.270;12.470;2023-05-24T21:08:17;102676.38;;;8.81;100.00
19236;BME280;9752;54.270;12.470;2023-05-24T21:13:21;102700.72;;;8.74;100.00
19236;BME280;9752;54.270;12.470;2023-05-24T21:18:24;102728.00;;;8.71;100.00
19236;BME280;9752;54.270;12.470;2023-05-24T21:23:26;102756.28;;;8.60;100.00
19236;BME280;9752;54.270;12.470;2023-05-24T21:28:29;102782.00;;;8.50;100.00
19236;BME280;9752;54.270;12.470;2023-05-24T21:33:31;102805.06;;;8.40;100.00
19236;BME280;9752;54.270;12.470;2023-05-24T21:38:32;102831.66;;;8.30;100.00
19236;BME280;9752;54.270;12.470;2023-05-24T21:43:37;102851.56;;;8.23;100.00
19236;BME280;9752;54.270;12.470;2023-05-24T21:48:39;102872.97;;;8.13;100.00
19236;BME280;9752;54.270;12.470;2023-05-24T21:53:41;102891.16;;;8.06;100.00
19236;BME280;9752;54.270;12.470;2023-05-24T21:58:44;102913.53;;;8.05;100.00
19236;BME280;9752;54.270;12.470;2023-05-24T22:03:45;102937.97;;;8.00;100.00
19236;BME280;9752;54.270;12.470;2023-05-24T22:08:47;102963.06;;;8.01;100.00
19236;BME280;9752;54.270;12.470;2023-05-24T22:13:50;102985.00;;;8.05;100.00
19236;BME280;9752;54.270;12.470;2023-05-24T22:18:53;103013.97;;;8.18;100.00
19236;BME280;9752;54.270;12.470;2023-05-24T22:23:55;103032.41;;;8.30;100.00
19236;BME280;9752;54.270;12.470;2023-05-24T22:28:58;103064.00;;;8.68;100.00
19236;BME280;9752;54.270;12.470;2023-05-24T22:34:03;103099.03;;;9.06;100.00
19236;BME280;9752;54.270;12.470;2023-05-24T22:39:04;103121.69;;;9.42;100.00
19236;BME280;9752;54.270;12.470;2023-05-24T22:44:07;103140.66;;;9.67;100.00
19236;BME280;9752;54.270;12.470;2023-05-24T22:49:09;103143.28;;;9.85;100.00
19236;BME280;9752;54.270;12.470;2023-05-24T22:54:13;103140.09;;;9.96;100.00
19236;BME280;9752;54.270;12.470;2023-05-24T22:59:16;103126.69;;;10.00;100.00
19236;BME280;9752;54.270;12.470;2023-05-24T23:04:18;103123.16;;;10.08;100.00
19236;BME280;9752;54.270;12.470;2023-05-24T23:09:20;103115.09;;;10.23;100.00
19236;BME280;9752;54.270;12.470;2023-05-24T23:14:29;103122.72;;;10.47;100.00
19236;BME280;9752;54.270;12.470;2023-05-24T23:19:31;103105.72;;;10.68;100.00
19236;BME280;9752;54.270;12.470;2023-05-24T23:24:33;103102.00;;;10.84;100.00
19236;BME280;9752;54.270;12.470;2023-05-24T23:29:38;103097.78;;;11.12;100.00
19236;BME280;9752;54.270;12.470;2023-05-24T23:34:40;103094.94;;;11.28;100.00
19236;BME280;9752;54.270;12.470;2023-05-24T23:39:42;103062.16;;;11.39;100.00
19236;BME280;9752;54.270;12.470;2023-05-24T23:44:45;103037.31;;;11.51;100.00
19236;BME280;9752;54.270;12.470;2023-05-24T23:49:46;103005.28;;;11.61;100.00
19236;BME280;9752;54.270;12.470;2023-05-24T23:54:48;102978.91;;;11.66;100.00
19236;BME280;9752;54.270;12.470;2023-05-24T23:59:51;102950.25;;;11.75;100.00
